首页
METAR-TAF:

METAR-TAF

机场 :

Black River Falls, 威斯康辛州, 美国

纬度: 44-15-03N, 经度: 090-51-19W, 海拔: 255米

当前天气观测

该预报发布于20分钟前的20:35 UTC
风速8节,风向西
温度 24°C
湿度 38%
气压 1015 hPa
能見度: 16.1公里
天空无云

METAR: KBCK 232035Z AUTO 27008KT 10SM CLR 24/09 A2997 RMK AO2 T02390091

时间: 15:55 (20:55 UTC)


TAF: 丢失

超过4000个机场的气象观测和天气预报(METAR&TAF报告)。

可查询的气象台以黄色和红色小点在地图上表示。

将鼠标移到小点上方,可查看气象台名称。

然后点击查看天气观测和预报。

如需切换地图:点击带黑十字的绿色按钮放大地图;点击带横线的绿色按钮缩小地图;或者点击绿色箭头查看邻近地区的地图。


METAR-TAF: